Meteo Giornale » Osservazioni meteo Stati Uniti (USA) » Glasgow
ore: 20:53 - Osservazioni Meteo Glasgow
Lat. 48° 12' N Lon. 106° 37' W Alt. 699 metri s.l.m.
21 °C
Sereno
Temp. 24 Ore
12 °C
26 °C
Nord
5.5 Km/h
Dew point 6 °C
Umidità 37 %
Visibilità 10 Km
Il sole sorge alle ore 06:23
Il sole tramonta alle ore 19:50
| Data e Ora | Cielo e Fenomeni | T °C | DP °C | Um. % | Pres. hPa | Vis. km | Vento km/h | |
|---|---|---|---|---|---|---|---|---|
| Oggi h: 20:53 | Sereno | 21 | 6 | 37 | 1014 | 10 | N 5.5 | |
| Oggi h: 19:53 | Sereno | 22 | 6 | 35 | 1013 | 10 | O/NO 11.1 | |
| Oggi h: 18:53 | Sereno | 24 | 5 | 29 | 1012 | 10 | NO 25.9 | |
| Oggi h: 17:53 | Sereno | 26 | 6 | 27 | 1012 | 10 | NO 35.2 | |
| Oggi h: 16:53 | Sereno | 26 | 6 | 27 | 1012 | 10 | O/NO 29.6 | |
| Oggi h: 15:53 | Sereno | 26 | 6 | 27 | 1012 | 10 | NO 42.6 | |
| Oggi h: 14:53 | Sereno | 26 | 6 | 27 | 1012 | 10 | O/NO 42.6 | |
| Oggi h: 13:53 | Poco Nuvoloso | 24 | 6 | 31 | 1012 | 10 | NO 40.7 | |
| Oggi h: 12:53 | Sereno | 24 | 7 | 33 | 1012 | 10 | O/NO 40.7 | |
| Oggi h: 11:53 | Sereno | 23 | 7 | 35 | 1011 | 10 | O/NO 50 | |
| Oggi h: 10:53 | Sereno | 22 | 8 | 40 | 1011 | 10 | O/NO 40.7 | |
| Oggi h: 09:53 | Sereno | 20 | 7 | 42 | 1011 | 10 | O/NO 44.4 | |
| Oggi h: 08:53 | Nuvoloso | 17 | 6 | 48 | 1010 | 10 | O 38.8 | |
| Oggi h: 07:53 | Coperto | 16 | 4 | 44 | 1009 | 10 | O 40.7 | |
| Oggi h: 06:53 | Coperto | 14 | 4 | 50 | 1009 | 10 | O/SO 29.6 | |
| Oggi h: 05:53 | Coperto | 13 | 4 | 54 | 1009 | 10 | O/SO 27.8 | |
| Oggi h: 04:53 | Coperto | 13 | 5 | 58 | 1009 | 10 | O 24 | |
| Oggi h: 03:53 | Sereno | 13 | 4 | 54 | 1009 | 10 | O 27.8 | |
| Oggi h: 02:53 | Sereno | 13 | 4 | 54 | 1008 | 10 | O/SO 22.2 | |
| Oggi h: 01:53 | Molto Nuvoloso | 13 | 4 | 54 | 1008 | 10 | O/SO 18.5 | |
| Oggi h: 00:53 | Sereno | 12 | 4 | 57 | 1009 | 10 | O/SO 7.4 | |
| Ieri h: 23:53 | Nuvoloso | 14 | 4 | 50 | 1009 | 10 | O/SO 14.8 | |
| Ieri h: 22:53 | Molto Nuvoloso | 14 | 5 | 54 | 1010 | 10 | O/SO 11.1 | |
| Ieri h: 21:53 | Sereno | 14 | 5 | 54 | 1010 | 10 | O 13 | |



